createdAt,value
2018-07-12T00:00:58.262Z,79.23
2018-07-12T00:03:27.080Z,71.33
2018-07-12T00:05:55.616Z,73.13
2018-07-12T00:08:24.415Z,77.33
2018-07-12T00:10:53.782Z,67.37
2018-07-12T00:13:22.481Z,59.97
2018-07-12T00:15:51.412Z,56.17
2018-07-12T00:18:21.321Z,58.73
2018-07-12T00:20:50.013Z,54.23
2018-07-12T00:23:18.807Z,63.27
2018-07-12T00:25:48.222Z,49.90
2018-07-12T00:28:17.207Z,63.03
2018-07-12T00:30:46.487Z,60.20
2018-07-12T00:33:14.637Z,63.60
2018-07-12T00:35:42.927Z,69.60
2018-07-12T00:38:12.123Z,68.73
2018-07-12T00:40:41.683Z,63.63
2018-07-12T00:43:10.212Z,65.90
2018-07-12T00:45:40.674Z,65.83
2018-07-12T00:48:09.886Z,63.23
2018-07-12T00:50:38.786Z,62.47
2018-07-12T00:53:06.999Z,70.53
2018-07-12T00:55:35.154Z,67.73
2018-07-12T00:58:03.338Z,62.63
2018-07-12T01:00:31.419Z,68.00
2018-07-12T01:02:59.504Z,58.40
2018-07-12T01:05:29.496Z,59.90
2018-07-12T01:07:57.957Z,64.87
2018-07-12T01:10:27.400Z,58.50
2018-07-12T01:12:58.292Z,69.17
2018-07-12T01:15:27.399Z,64.47
2018-07-12T01:17:55.466Z,60.00
2018-07-12T01:20:24.883Z,62.77
2018-07-12T01:22:53.594Z,64.40
2018-07-12T01:25:23.751Z,67.83
2018-07-12T01:27:51.806Z,83.50
2018-07-12T01:30:21.048Z,85.60
2018-07-12T01:32:49.590Z,89.73
2018-07-12T01:35:19.402Z,83.73
2018-07-12T01:37:48.749Z,81.97
2018-07-12T01:40:17.734Z,83.37
2018-07-12T01:42:46.247Z,76.63
2018-07-12T01:45:16.007Z,78.80
2018-07-12T01:47:45.584Z,75.20
2018-07-12T01:50:14.083Z,82.03
2018-07-12T01:52:43.803Z,74.87
2018-07-12T01:55:13.720Z,89.53
2018-07-12T01:57:42.031Z,82.60
2018-07-12T02:00:10.915Z,87.53
2018-07-12T02:02:40.484Z,76.63
2018-07-12T02:05:09.341Z,80.87
2018-07-12T02:07:38.033Z,73.90
2018-07-12T02:10:07.576Z,73.90
2018-07-12T02:12:36.981Z,78.70
2018-07-12T02:15:06.384Z,76.53
2018-07-12T02:17:35.160Z,87.20
2018-07-12T02:20:03.263Z,84.63
2018-07-12T02:22:31.147Z,74.03
2018-07-12T02:24:59.740Z,79.03
2018-07-12T02:27:29.640Z,85.97
2018-07-12T02:29:58.389Z,101.17
2018-07-12T02:32:26.546Z,96.37
2018-07-12T02:34:54.377Z,88.57
2018-07-12T02:37:22.403Z,97.07
2018-07-12T02:39:51.621Z,104.27
2018-07-12T02:42:20.769Z,95.80
2018-07-12T02:44:49.823Z,89.33
2018-07-12T02:47:18.631Z,105.47
2018-07-12T02:49:48.973Z,124.87
2018-07-12T02:52:17.665Z,126.77
2018-07-12T02:54:45.507Z,133.30
2018-07-12T02:57:14.878Z,121.23
2018-07-12T02:59:43.861Z,120.00
2018-07-12T03:02:12.789Z,127.27
2018-07-12T03:04:42.946Z,120.03
2018-07-12T03:07:11.489Z,128.57
2018-07-12T03:09:41.068Z,133.67
2018-07-12T03:12:10.105Z,136.03
2018-07-12T03:14:38.911Z,140.77
2018-07-12T03:17:08.018Z,132.77
2018-07-12T03:19:36.617Z,127.07
2018-07-12T03:22:05.618Z,129.87
2018-07-12T03:24:34.826Z,121.70
2018-07-12T03:27:04.451Z,124.13
2018-07-12T03:29:33.388Z,123.73
2018-07-12T03:32:01.774Z,112.17
2018-07-12T03:34:30.459Z,117.37
2018-07-12T03:36:58.487Z,122.23
2018-07-12T03:39:27.838Z,120.17
2018-07-12T03:41:57.352Z,105.13
2018-07-12T03:44:26.757Z,128.57
2018-07-12T03:46:55.466Z,116.43
2018-07-12T03:49:24.207Z,115.13
2018-07-12T03:51:52.468Z,129.60
2018-07-12T03:54:21.086Z,115.13
2018-07-12T03:56:49.348Z,130.90
2018-07-12T03:59:17.619Z,116.90
2018-07-12T04:01:46.551Z,103.53
2018-07-12T04:04:14.743Z,104.50
2018-07-12T04:06:44.638Z,109.87
2018-07-12T04:09:13.748Z,98.47
2018-07-12T04:11:42.948Z,109.70
2018-07-12T04:14:12.067Z,88.63
2018-07-12T04:16:41.146Z,78.90
2018-07-12T04:19:09.379Z,84.53
2018-07-12T04:21:38.142Z,86.77
2018-07-12T04:24:07.772Z,79.77
2018-07-12T04:26:36.186Z,66.40
2018-07-12T04:29:05.735Z,64.87
2018-07-12T04:31:34.239Z,62.73
2018-07-12T04:34:02.739Z,61.30
2018-07-12T04:36:31.264Z,70.00
2018-07-12T04:38:59.988Z,71.77
2018-07-12T04:41:30.156Z,70.17
2018-07-12T04:43:58.967Z,62.40
2018-07-12T04:46:27.798Z,60.40
2018-07-12T04:48:56.134Z,56.80
2018-07-12T04:51:25.363Z,60.00
2018-07-12T04:53:53.676Z,65.97
2018-07-12T04:56:21.941Z,57.80
2018-07-12T04:58:50.363Z,59.00
2018-07-12T05:01:19.164Z,58.47
2018-07-12T05:03:46.880Z,53.03
2018-07-12T05:06:15.934Z,52.73
2018-07-12T05:08:44.371Z,51.10
2018-07-12T05:11:12.933Z,51.63
2018-07-12T05:13:41.637Z,44.70
2018-07-12T05:16:09.833Z,49.53
2018-07-12T05:18:38.287Z,51.43
2018-07-12T05:21:06.433Z,48.13
2018-07-12T05:23:34.893Z,40.77
2018-07-12T05:26:03.330Z,49.17
2018-07-12T05:28:34.170Z,46.97
2018-07-12T05:31:02.715Z,39.07
2018-07-12T05:33:30.897Z,43.80
2018-07-12T05:36:01.288Z,38.20
2018-07-12T05:38:32.391Z,35.30
2018-07-12T05:41:03.082Z,37.53
2018-07-12T05:43:35.725Z,42.27
2018-07-12T05:46:09.321Z,34.57
2018-07-12T05:48:41.146Z,35.50
2018-07-12T05:51:12.884Z,37.20
2018-07-12T05:53:43.033Z,36.87
2018-07-12T05:56:14.595Z,38.57
2018-07-12T05:58:46.350Z,41.90
2018-07-12T06:01:27.324Z,39.50
2018-07-12T06:03:58.289Z,37.23
2018-07-12T06:06:29.114Z,36.73
2018-07-12T06:08:59.882Z,37.50
2018-07-12T06:11:30.123Z,39.17
2018-07-12T06:14:01.374Z,36.67
2018-07-12T06:16:31.737Z,32.87
2018-07-12T06:19:04.383Z,37.97
2018-07-12T06:21:36.176Z,33.77
2018-07-12T06:24:08.050Z,34.00
2018-07-12T06:26:39.306Z,40.50
2018-07-12T06:29:11.708Z,34.63
2018-07-12T06:31:41.709Z,32.30
2018-07-12T06:34:12.667Z,34.97
2018-07-12T06:36:46.794Z,41.10
2018-07-12T06:39:19.178Z,37.47
2018-07-12T06:41:50.292Z,36.63
2018-07-12T06:44:22.506Z,35.10
2018-07-12T06:46:54.369Z,38.60
2018-07-12T06:49:26.565Z,41.40
2018-07-12T06:51:57.299Z,36.20
2018-07-12T06:54:28.076Z,36.03
2018-07-12T06:56:59.703Z,38.00
2018-07-12T06:59:30.609Z,39.40
2018-07-12T07:02:02.339Z,43.50
2018-07-12T07:04:34.419Z,46.60
2018-07-12T07:07:05.675Z,54.23
2018-07-12T07:09:37.506Z,52.20
2018-07-12T07:12:09.695Z,58.53
2018-07-12T07:14:40.478Z,55.20
2018-07-12T07:17:11.731Z,54.43
2018-07-12T07:19:44.469Z,59.73
2018-07-12T07:22:15.168Z,47.57
2018-07-12T07:24:46.118Z,42.33
2018-07-12T07:27:18.708Z,43.87
2018-07-12T07:29:49.345Z,46.80
2018-07-12T07:32:20.721Z,49.90
2018-07-12T07:34:52.173Z,56.73
2018-07-12T07:37:24.289Z,63.73
2018-07-12T07:39:54.698Z,57.47
2018-07-12T07:42:25.493Z,63.33
2018-07-12T07:44:56.281Z,63.70
2018-07-12T07:47:28.674Z,64.43
2018-07-12T07:49:59.413Z,69.17
2018-07-12T07:52:29.541Z,62.27
2018-07-12T07:54:58.001Z,54.03
2018-07-12T07:57:29.108Z,52.27
2018-07-12T08:00:02.224Z,53.53
2018-07-12T08:02:35.086Z,59.47
2018-07-12T08:05:06.190Z,60.53
2018-07-12T08:07:41.153Z,57.07
2018-07-12T08:10:15.734Z,61.10
2018-07-12T08:12:49.344Z,55.33
2018-07-12T08:15:20.090Z,63.17
2018-07-12T08:17:58.357Z,65.17
2018-07-12T08:20:34.277Z,62.27
2018-07-12T08:23:07.400Z,62.07
2018-07-12T08:25:39.663Z,59.43
2018-07-12T08:28:21.058Z,67.53
2018-07-12T08:30:53.071Z,62.67
2018-07-12T08:33:29.124Z,62.13
2018-07-12T08:36:02.678Z,73.47
2018-07-12T08:38:35.614Z,65.40
2018-07-12T08:41:09.125Z,64.30
2018-07-12T08:43:47.458Z,63.50
2018-07-12T08:46:27.828Z,67.10
2018-07-12T08:48:57.702Z,59.77
2018-07-12T08:51:31.870Z,57.50
2018-07-12T08:54:06.306Z,52.63
2018-07-12T08:56:45.266Z,56.23
2018-07-12T08:59:20.803Z,60.50
2018-07-12T09:02:00.565Z,57.57
2018-07-12T09:04:38.998Z,64.00
2018-07-12T09:07:15.668Z,59.13
2018-07-12T09:09:58.336Z,57.40
2018-07-12T09:12:32.524Z,51.27
2018-07-12T09:15:16.382Z,54.10
2018-07-12T09:17:53.268Z,53.90
2018-07-12T09:20:34.154Z,54.53
2018-07-12T09:23:10.635Z,54.70
2018-07-12T09:25:48.660Z,51.77
2018-07-12T09:28:22.977Z,53.03
2018-07-12T09:31:02.741Z,57.53
2018-07-12T09:33:47.060Z,54.83
2018-07-12T09:36:31.487Z,58.63
2018-07-12T09:39:08.665Z,61.57
2018-07-12T09:41:46.177Z,56.27
2018-07-12T09:44:17.591Z,64.17
2018-07-12T09:46:48.688Z,57.77
2018-07-12T09:49:26.914Z,52.17
2018-07-12T09:51:57.786Z,49.37
2018-07-12T09:54:33.932Z,48.93
2018-07-12T09:57:15.761Z,45.17
2018-07-12T09:59:58.364Z,42.10
2018-07-12T10:02:36.694Z,41.83
2018-07-12T10:05:13.512Z,38.40
2018-07-12T10:07:59.583Z,30.10
2018-07-12T10:10:39.876Z,32.28
2018-07-12T10:13:19.332Z,32.15
2018-07-12T10:15:56.292Z,28.02
2018-07-12T10:18:32.774Z,23.55
2018-07-12T10:21:02.504Z,26.45
2018-07-12T10:23:35.334Z,26.23
2018-07-12T10:26:09.020Z,35.10
2018-07-12T10:28:44.998Z,37.43
2018-07-12T10:31:20.054Z,37.67
2018-07-12T10:33:58.874Z,36.50
2018-07-12T10:36:36.379Z,41.13
2018-07-12T10:39:12.040Z,46.17
2018-07-12T10:41:51.687Z,44.00
2018-07-12T10:44:28.407Z,40.23
2018-07-12T10:47:00.147Z,36.40
2018-07-12T10:49:31.414Z,35.60
2018-07-12T10:52:05.532Z,37.57
2018-07-12T10:54:47.747Z,35.67
2018-07-12T10:57:29.075Z,34.63
2018-07-12T11:00:03.832Z,31.87
2018-07-12T11:02:35.136Z,25.83
2018-07-12T11:05:05.780Z,27.13
2018-07-12T11:07:36.472Z,24.13
2018-07-12T11:10:06.564Z,29.47
2018-07-12T11:12:38.524Z,26.37
2018-07-12T11:15:07.654Z,27.37
2018-07-12T11:17:38.705Z,24.60
2018-07-12T11:20:09.124Z,25.40
2018-07-12T11:22:38.626Z,29.33
2018-07-12T11:25:07.575Z,26.63
2018-07-12T11:27:37.268Z,26.13
2018-07-12T11:30:09.453Z,25.23
2018-07-12T11:32:39.308Z,24.83
2018-07-12T11:35:09.322Z,25.37
2018-07-12T11:37:38.823Z,23.47
2018-07-12T11:40:09.072Z,24.00
2018-07-12T11:42:38.789Z,22.97
2018-07-12T11:45:13.602Z,30.07
2018-07-12T11:47:44.036Z,26.17
2018-07-12T11:50:14.250Z,25.03
2018-07-12T11:52:44.622Z,26.70
2018-07-12T11:55:14.294Z,24.23
2018-07-12T11:57:45.271Z,26.87
2018-07-12T12:00:15.800Z,23.43
2018-07-12T12:02:47.606Z,23.67
2018-07-12T12:05:17.176Z,20.40
2018-07-12T12:07:47.815Z,19.37
2018-07-12T12:10:18.459Z,22.37
2018-07-12T12:12:48.211Z,23.77
2018-07-12T12:15:18.188Z,27.97
2018-07-12T12:17:48.748Z,29.87
2018-07-12T12:20:21.210Z,22.67
2018-07-12T12:22:52.052Z,22.43
2018-07-12T12:25:23.448Z,24.40
2018-07-12T12:27:52.864Z,18.83
2018-07-12T12:30:21.909Z,23.07
2018-07-12T12:32:51.751Z,21.00
2018-07-12T12:35:22.943Z,22.83
2018-07-12T12:37:52.592Z,19.80
2018-07-12T12:40:22.260Z,19.10
2018-07-12T12:42:51.624Z,20.30
2018-07-12T12:45:20.846Z,18.70
2018-07-12T12:47:50.205Z,20.10
2018-07-12T12:50:19.741Z,16.60
2018-07-12T12:52:49.049Z,21.87
2018-07-12T12:55:18.117Z,17.63
2018-07-12T12:57:47.298Z,19.87
2018-07-12T13:00:19.394Z,19.47
2018-07-12T13:02:50.456Z,19.07
2018-07-12T13:05:20.554Z,19.07
2018-07-12T13:07:56.030Z,17.40
2018-07-12T13:10:30.020Z,12.40
2018-07-12T13:13:02.296Z,11.30
2018-07-12T13:15:32.424Z,16.83
2018-07-12T13:18:03.483Z,17.00
2018-07-12T13:20:35.659Z,16.27
2018-07-12T13:23:10.099Z,18.97
2018-07-12T13:25:48.209Z,19.47
2018-07-12T13:28:29.608Z,19.83
2018-07-12T13:31:09.163Z,18.97
2018-07-12T13:33:51.393Z,19.33
2018-07-12T13:36:28.779Z,21.70
2018-07-12T13:39:05.000Z,20.53
2018-07-12T13:41:43.586Z,19.40
2018-07-12T13:44:26.106Z,18.50
2018-07-12T13:47:04.739Z,21.13
2018-07-12T13:49:45.322Z,17.83
2018-07-12T13:52:29.337Z,16.83
2018-07-12T13:55:04.957Z,18.63
2018-07-12T13:57:41.473Z,17.47
2018-07-12T14:00:15.671Z,15.90
2018-07-12T14:02:48.053Z,19.30
2018-07-12T14:05:19.205Z,16.27
2018-07-12T14:07:51.183Z,18.80
2018-07-12T14:10:26.281Z,18.40
2018-07-12T14:13:01.999Z,18.57
2018-07-12T14:15:42.792Z,20.10
2018-07-12T14:18:25.298Z,19.07
2018-07-12T14:21:03.739Z,21.57
2018-07-12T14:23:41.743Z,17.00
2018-07-12T14:26:17.399Z,15.80
2018-07-12T14:28:55.832Z,21.90
2018-07-12T14:31:34.774Z,15.37
2018-07-12T14:34:08.312Z,14.30
2018-07-12T14:36:40.674Z,21.37
2018-07-12T14:39:10.476Z,20.57
2018-07-12T14:41:40.387Z,17.07
2018-07-12T14:44:10.572Z,18.80
2018-07-12T14:46:40.038Z,18.07
2018-07-12T14:49:08.983Z,19.27
2018-07-12T14:51:42.010Z,20.03
2018-07-12T14:54:12.712Z,17.20
2018-07-12T14:56:43.949Z,20.53
2018-07-12T14:59:14.565Z,20.67
2018-07-12T15:01:44.820Z,17.53
2018-07-12T15:04:17.262Z,18.97
2018-07-12T15:06:47.664Z,17.53
2018-07-12T15:09:18.318Z,18.17
2018-07-12T15:11:50.034Z,19.80
2018-07-12T15:14:21.014Z,19.03
2018-07-12T15:16:50.558Z,18.47
2018-07-12T15:19:23.045Z,23.37
2018-07-12T15:21:52.757Z,23.33
2018-07-12T15:24:22.271Z,18.97
2018-07-12T15:26:52.710Z,23.30
2018-07-12T15:29:24.660Z,23.23
2018-07-12T15:35:40.489Z,21.63
2018-07-12T15:38:12.118Z,20.20
2018-07-12T15:40:45.088Z,21.70
2018-07-12T15:43:23.975Z,17.77
2018-07-12T15:45:58.776Z,17.80
2018-07-12T15:48:31.316Z,19.40
2018-07-12T15:51:05.278Z,17.03
2018-07-12T15:53:34.016Z,16.67
2018-07-12T15:56:05.801Z,17.07
2018-07-12T15:58:37.361Z,18.60
2018-07-12T16:01:08.261Z,17.43
2018-07-12T16:03:39.742Z,19.13
2018-07-12T16:06:12.825Z,17.33
2018-07-12T16:08:45.508Z,17.27
2018-07-12T16:11:18.105Z,17.10
2018-07-12T16:13:52.706Z,16.37
2018-07-12T16:16:26.458Z,20.03
2018-07-12T16:19:03.132Z,13.50
2018-07-12T16:21:35.220Z,14.90
2018-07-12T16:24:06.808Z,16.93
2018-07-12T16:26:36.810Z,15.00
2018-07-12T16:29:07.746Z,15.50
2018-07-12T16:31:38.201Z,17.47
2018-07-12T16:34:09.571Z,13.53
2018-07-12T16:36:39.160Z,14.83
2018-07-12T16:39:10.397Z,15.80
2018-07-12T16:41:41.207Z,14.47
2018-07-12T16:44:15.130Z,14.00
2018-07-12T16:46:44.953Z,12.27
2018-07-12T16:49:15.678Z,16.67
2018-07-12T16:51:46.555Z,13.80
2018-07-12T16:54:14.879Z,15.80
2018-07-12T16:56:43.310Z,14.47
2018-07-12T16:59:11.395Z,13.47
2018-07-12T17:01:39.656Z,13.90
2018-07-12T17:04:08.096Z,13.40
2018-07-12T17:06:36.131Z,14.67
2018-07-12T17:09:05.553Z,12.83
2018-07-12T17:11:34.007Z,12.87
2018-07-12T17:14:02.431Z,13.77
2018-07-12T17:16:30.750Z,14.10
2018-07-12T17:18:58.835Z,15.30
2018-07-12T17:21:27.545Z,14.13
2018-07-12T17:23:55.852Z,14.23
2018-07-12T17:26:24.134Z,12.77
2018-07-12T17:28:52.320Z,14.10
2018-07-12T17:31:20.768Z,13.67
2018-07-12T17:33:48.972Z,12.50
2018-07-12T17:36:17.893Z,12.10
2018-07-12T17:38:45.922Z,11.90
2018-07-12T17:41:14.139Z,13.50
2018-07-12T17:43:42.154Z,16.30
2018-07-12T17:46:10.793Z,20.03
2018-07-12T17:48:40.552Z,15.30
2018-07-12T17:51:10.306Z,13.57
2018-07-12T17:53:38.407Z,14.10
2018-07-12T17:56:06.685Z,17.13
2018-07-12T17:58:34.849Z,14.13
2018-07-12T18:01:02.858Z,17.80
2018-07-12T18:03:31.274Z,13.43
2018-07-12T18:05:59.767Z,20.30
2018-07-12T18:08:27.850Z,12.70
2018-07-12T18:10:56.005Z,16.63
2018-07-12T18:13:24.213Z,19.23
2018-07-12T18:15:52.270Z,15.60
2018-07-12T18:18:20.328Z,15.97
2018-07-12T18:20:49.887Z,14.33
